createdAt,value
2019-03-11T00:01:43.438Z,54.30
2019-03-11T00:04:13.858Z,56.00
2019-03-11T00:06:43.994Z,54.60
2019-03-11T00:09:14.092Z,54.60
2019-03-11T00:11:43.881Z,54.70
2019-03-11T00:14:13.469Z,54.90
2019-03-11T00:16:43.650Z,55.00
2019-03-11T00:19:13.230Z,55.00
2019-03-11T00:21:42.851Z,55.60
2019-03-11T00:24:12.511Z,55.00
2019-03-11T00:26:42.445Z,55.00
2019-03-11T00:29:12.037Z,54.90
2019-03-11T00:31:41.656Z,54.90
2019-03-11T00:34:11.385Z,54.80
2019-03-11T00:36:41.032Z,54.80
2019-03-11T00:39:10.605Z,54.90
2019-03-11T00:41:40.229Z,54.90
2019-03-11T00:44:10.750Z,54.90
2019-03-11T00:46:40.399Z,54.80
2019-03-11T00:49:10.004Z,54.80
2019-03-11T00:51:40.210Z,54.60
2019-03-11T00:54:09.807Z,54.60
2019-03-11T00:56:39.389Z,54.60
2019-03-11T00:59:09.406Z,54.60
2019-03-11T01:01:39.319Z,54.50
2019-03-11T01:04:09.389Z,54.50
2019-03-11T01:06:39.973Z,54.50
2019-03-11T01:09:09.986Z,54.10
2019-03-11T01:11:39.588Z,54.40
2019-03-11T01:14:09.291Z,54.40
2019-03-11T01:16:39.411Z,54.40
2019-03-11T01:19:09.038Z,54.40
2019-03-11T01:21:38.617Z,54.40
2019-03-11T01:24:08.696Z,54.30
2019-03-11T01:26:38.461Z,54.30
2019-03-11T01:29:08.464Z,54.20
2019-03-11T01:31:38.061Z,54.20
2019-03-11T01:34:07.690Z,53.90
2019-03-11T01:36:37.266Z,54.60
2019-03-11T01:39:07.733Z,53.90
2019-03-11T01:41:37.326Z,53.90
2019-03-11T01:44:07.879Z,54.50
2019-03-11T01:46:37.466Z,53.90
2019-03-11T01:49:07.127Z,53.60
2019-03-11T01:51:36.709Z,53.70
2019-03-11T01:54:06.336Z,53.60
2019-03-11T01:56:35.917Z,53.80
2019-03-11T01:59:05.542Z,53.80
2019-03-11T02:01:35.165Z,53.90
2019-03-11T02:04:05.354Z,54.00
2019-03-11T02:06:35.007Z,53.80
2019-03-11T02:09:04.945Z,54.00
2019-03-11T02:11:35.022Z,54.00
2019-03-11T02:14:04.653Z,54.10
2019-03-11T02:16:34.233Z,54.10
2019-03-11T02:19:04.359Z,54.10
2019-03-11T02:21:34.387Z,54.10
2019-03-11T02:24:04.499Z,54.10
2019-03-11T02:26:34.080Z,54.00
2019-03-11T02:29:03.698Z,53.80
2019-03-11T02:31:33.289Z,54.00
2019-03-11T02:34:02.916Z,54.00
2019-03-11T02:36:32.955Z,53.90
2019-03-11T02:39:02.809Z,54.00
2019-03-11T02:41:32.378Z,53.80
2019-03-11T02:44:02.002Z,53.70
2019-03-11T02:46:31.673Z,53.90
2019-03-11T02:49:01.280Z,53.90
2019-03-11T02:51:30.877Z,53.90
2019-03-11T02:54:00.950Z,54.50
2019-03-11T02:56:30.563Z,53.80
2019-03-11T02:59:00.233Z,53.80
2019-03-11T03:01:48.682Z,53.80
2019-03-11T03:04:22.655Z,53.90
2019-03-11T03:06:52.220Z,54.00
2019-03-11T03:09:21.843Z,53.70
2019-03-11T03:11:51.428Z,53.60
2019-03-11T03:14:21.046Z,53.80
2019-03-11T03:16:51.031Z,53.80
2019-03-11T03:19:21.195Z,53.70
2019-03-11T03:21:50.774Z,53.40
2019-03-11T03:24:20.911Z,53.60
2019-03-11T03:26:50.492Z,53.60
2019-03-11T03:29:20.127Z,53.70
2019-03-11T03:31:50.155Z,53.70
2019-03-11T03:34:19.809Z,53.20
2019-03-11T03:36:50.043Z,53.60
2019-03-11T03:39:20.152Z,53.60
2019-03-11T03:41:49.727Z,53.60
2019-03-11T03:44:19.870Z,53.80
2019-03-11T03:46:49.453Z,53.80
2019-03-11T03:49:19.404Z,53.90
2019-03-11T03:51:48.986Z,54.60
2019-03-11T03:54:18.612Z,53.80
2019-03-11T03:56:48.559Z,54.20
2019-03-11T03:59:18.750Z,53.90
2019-03-11T04:01:48.332Z,54.00
2019-03-11T04:04:19.038Z,54.00
2019-03-11T04:06:49.066Z,54.00
2019-03-11T04:09:19.139Z,54.00
2019-03-11T04:11:48.715Z,53.90
2019-03-11T04:14:18.695Z,53.60
2019-03-11T04:16:48.287Z,54.10
2019-03-11T04:19:17.914Z,53.60
2019-03-11T04:21:47.933Z,53.70
2019-03-11T04:24:17.567Z,54.00
2019-03-11T04:26:53.262Z,54.00
2019-03-11T04:29:22.894Z,53.80
2019-03-11T04:31:52.479Z,53.70
2019-03-11T04:34:23.082Z,53.60
2019-03-11T04:36:52.985Z,53.70
2019-03-11T04:39:22.610Z,53.80
2019-03-11T04:41:52.720Z,53.90
2019-03-11T04:44:22.350Z,54.00
2019-03-11T04:46:52.283Z,53.90
2019-03-11T04:49:22.403Z,53.90
2019-03-11T04:51:52.070Z,53.80
2019-03-11T04:54:21.673Z,53.90
2019-03-11T04:56:51.348Z,53.80
2019-03-11T04:59:21.537Z,53.70
2019-03-11T05:01:52.218Z,53.90
2019-03-11T05:04:21.810Z,54.00
2019-03-11T05:06:51.857Z,54.10
2019-03-11T05:09:21.445Z,54.20
2019-03-11T05:11:52.000Z,54.30
2019-03-11T05:14:23.458Z,54.50
2019-03-11T05:16:53.569Z,54.50
2019-03-11T05:19:23.162Z,54.70
2019-03-11T05:21:52.788Z,54.80
2019-03-11T05:24:22.862Z,54.80
2019-03-11T05:26:52.517Z,54.90
2019-03-11T05:29:22.117Z,54.90
2019-03-11T05:31:51.747Z,55.00
2019-03-11T05:34:21.339Z,55.10
2019-03-11T05:36:51.702Z,55.10
2019-03-11T05:39:21.303Z,55.20
2019-03-11T05:41:50.974Z,55.30
2019-03-11T05:44:20.963Z,55.80
2019-03-11T05:46:50.585Z,56.20
2019-03-11T05:49:20.186Z,55.30
2019-03-11T05:51:51.622Z,55.50
2019-03-11T05:54:21.477Z,55.50
2019-03-11T05:56:51.263Z,55.50
2019-03-11T05:59:20.874Z,55.60
2019-03-11T06:01:51.027Z,55.70
2019-03-11T06:04:20.616Z,55.70
2019-03-11T06:06:50.268Z,55.70
2019-03-11T06:09:20.230Z,56.00
2019-03-11T06:11:49.843Z,56.10
2019-03-11T06:14:20.477Z,56.30
2019-03-11T06:16:50.089Z,56.70
2019-03-11T06:19:20.126Z,56.60
2019-03-11T06:22:02.271Z,56.70
2019-03-11T06:24:32.318Z,56.60
2019-03-11T06:27:01.962Z,56.80
2019-03-11T06:29:31.548Z,56.80
2019-03-11T06:32:01.173Z,57.30
2019-03-11T06:34:31.670Z,57.40
2019-03-11T06:37:02.606Z,57.60
2019-03-11T06:39:32.186Z,57.30
2019-03-11T06:42:01.827Z,57.70
2019-03-11T06:44:31.422Z,58.00
2019-03-11T06:47:01.170Z,58.30
2019-03-11T06:49:30.758Z,58.10
2019-03-11T06:52:00.379Z,58.20
2019-03-11T06:54:29.950Z,58.60
2019-03-11T06:56:59.609Z,58.40
2019-03-11T06:59:29.224Z,58.30
2019-03-11T07:01:58.837Z,58.70
2019-03-11T07:04:28.443Z,58.60
2019-03-11T07:06:58.047Z,58.90
2019-03-11T07:09:27.730Z,58.80
2019-03-11T07:11:57.446Z,58.70
2019-03-11T07:14:27.430Z,58.60
2019-03-11T07:16:57.659Z,58.70
2019-03-11T07:19:27.605Z,59.30
2019-03-11T07:21:57.218Z,58.60
2019-03-11T07:24:27.225Z,59.30
2019-03-11T07:26:56.846Z,58.60
2019-03-11T07:29:27.430Z,58.60
2019-03-11T07:31:57.074Z,58.60
2019-03-11T07:34:27.108Z,58.60
2019-03-11T07:36:56.735Z,58.60
2019-03-11T07:39:26.345Z,58.50
2019-03-11T07:41:55.986Z,58.50
2019-03-11T07:44:26.134Z,58.40
2019-03-11T07:46:56.302Z,58.30
2019-03-11T07:49:26.272Z,58.40
2019-03-11T07:51:56.285Z,58.30
2019-03-11T07:54:35.429Z,58.30
2019-03-11T07:56:58.146Z,58.10
2019-03-11T07:59:27.741Z,58.10
2019-03-11T08:01:57.415Z,58.10
2019-03-11T08:04:27.005Z,58.10
2019-03-11T08:06:57.382Z,58.20
2019-03-11T08:09:37.206Z,58.20
2019-03-11T08:11:59.185Z,58.20
2019-03-11T08:14:29.268Z,58.20
2019-03-11T08:16:58.943Z,58.50
2019-03-11T08:19:28.534Z,58.30
2019-03-11T08:21:59.112Z,58.40
2019-03-11T08:24:29.134Z,58.50
2019-03-11T08:26:59.340Z,58.40
2019-03-11T08:29:29.047Z,58.40
2019-03-11T08:31:59.279Z,58.40
2019-03-11T08:34:29.476Z,58.40
2019-03-11T08:37:02.023Z,58.40
2019-03-11T08:39:32.350Z,58.40
2019-03-11T08:42:03.973Z,58.40
2019-03-11T08:44:34.913Z,58.50
2019-03-11T08:47:05.348Z,58.40
2019-03-11T08:49:36.800Z,58.40
2019-03-11T08:52:06.872Z,58.20
2019-03-11T08:54:38.710Z,58.20
2019-03-11T08:57:09.306Z,58.20
2019-03-11T08:59:39.012Z,58.20
2019-03-11T09:02:09.210Z,58.10
2019-03-11T09:04:42.387Z,58.30
2019-03-11T09:07:11.996Z,58.30
2019-03-11T09:09:42.026Z,58.30
2019-03-11T09:12:12.423Z,58.40
2019-03-11T09:14:49.134Z,58.20
2019-03-11T09:17:19.325Z,58.40
2019-03-11T09:19:49.089Z,58.60
2019-03-11T09:22:19.153Z,58.60
2019-03-11T09:24:49.250Z,58.70
2019-03-11T09:27:18.892Z,58.90
2019-03-11T09:29:48.493Z,58.90
2019-03-11T09:32:19.434Z,59.20
2019-03-11T09:34:49.693Z,59.30
2019-03-11T09:37:19.768Z,59.30
2019-03-11T09:39:49.352Z,59.30
2019-03-11T09:42:19.002Z,59.50
2019-03-11T09:44:49.037Z,59.50
2019-03-11T09:47:19.156Z,59.50
2019-03-11T09:49:49.235Z,59.50
2019-03-11T09:52:18.885Z,59.40
2019-03-11T09:54:48.465Z,60.00
2019-03-11T09:57:18.100Z,59.30
2019-03-11T09:59:47.699Z,59.00
2019-03-11T10:02:17.793Z,58.70
2019-03-11T10:04:47.390Z,58.50
2019-03-11T10:07:17.839Z,58.10
2019-03-11T10:09:47.411Z,58.10
2019-03-11T10:12:17.054Z,58.00
2019-03-11T10:14:46.636Z,57.90
2019-03-11T10:17:16.675Z,58.00
2019-03-11T10:19:46.888Z,57.80
2019-03-11T10:22:16.534Z,57.90
2019-03-11T10:24:46.518Z,57.70
2019-03-11T10:27:16.596Z,57.20
2019-03-11T10:29:46.180Z,57.00
2019-03-11T10:32:16.238Z,57.20
2019-03-11T10:34:46.148Z,56.50
2019-03-11T10:37:15.778Z,56.50
2019-03-11T10:39:47.933Z,56.30
2019-03-11T10:42:17.210Z,56.20
2019-03-11T10:44:47.164Z,56.30
2019-03-11T10:47:16.799Z,56.30
2019-03-11T10:49:46.755Z,56.40
2019-03-11T10:52:16.816Z,55.90
2019-03-11T10:54:46.469Z,55.80
2019-03-11T10:57:16.100Z,55.10
2019-03-11T10:59:46.178Z,55.20
2019-03-11T11:02:17.613Z,54.60
2019-03-11T11:04:48.098Z,54.70
2019-03-11T11:07:17.732Z,54.30
2019-03-11T11:09:47.883Z,53.40
2019-03-11T11:12:17.509Z,53.40
2019-03-11T11:14:47.162Z,53.10
2019-03-11T11:17:16.862Z,53.30
2019-03-11T11:19:46.439Z,51.60
2019-03-11T11:22:16.062Z,52.40
2019-03-11T11:24:45.647Z,52.70
2019-03-11T11:27:15.280Z,52.80
2019-03-11T11:29:44.883Z,52.90
2019-03-11T11:32:14.518Z,52.00
2019-03-11T11:34:44.517Z,52.00
2019-03-11T11:37:14.104Z,51.80
2019-03-11T11:39:44.260Z,52.30
2019-03-11T11:42:14.312Z,52.10
2019-03-11T11:44:44.364Z,52.10
2019-03-11T11:47:14.269Z,51.70
2019-03-11T11:49:44.444Z,51.70
2019-03-11T11:52:14.815Z,51.30
2019-03-11T11:54:44.553Z,51.50
2019-03-11T11:57:15.049Z,51.80
2019-03-11T11:59:53.450Z,52.40
2019-03-11T12:02:16.367Z,52.20
2019-03-11T12:04:46.013Z,52.30
2019-03-11T12:07:15.670Z,51.70
2019-03-11T12:09:45.748Z,51.90
2019-03-11T12:12:16.127Z,52.00
2019-03-11T12:14:46.081Z,51.80
2019-03-11T12:17:16.241Z,51.60
2019-03-11T12:19:45.834Z,51.30
2019-03-11T12:22:15.472Z,51.10
2019-03-11T12:24:45.649Z,51.70
2019-03-11T12:27:15.272Z,51.70
2019-03-11T12:29:44.859Z,52.00
2019-03-11T12:32:14.650Z,52.30
2019-03-11T12:34:44.250Z,52.80
2019-03-11T12:37:14.221Z,53.80
2019-03-11T12:39:44.257Z,54.20
2019-03-11T12:42:13.903Z,54.60
2019-03-11T12:44:43.898Z,55.10
2019-03-11T12:47:13.529Z,55.60
2019-03-11T12:49:44.630Z,55.60
2019-03-11T12:52:14.262Z,55.80
2019-03-11T12:54:44.307Z,55.60
2019-03-11T12:57:13.944Z,55.70
2019-03-11T12:59:44.364Z,55.60
2019-03-11T13:02:14.005Z,55.10
2019-03-11T13:04:44.058Z,54.70
2019-03-11T13:07:14.123Z,54.40
2019-03-11T13:09:43.698Z,53.80
2019-03-11T13:12:14.159Z,53.40
2019-03-11T13:14:43.742Z,53.30
2019-03-11T13:17:13.858Z,53.10
2019-03-11T13:19:43.477Z,52.90
2019-03-11T13:22:13.102Z,52.30
2019-03-11T13:24:43.058Z,51.80
2019-03-11T13:27:13.196Z,51.90
2019-03-11T13:29:43.211Z,52.20
2019-03-11T13:32:13.789Z,52.50
2019-03-11T13:34:43.920Z,53.10
2019-03-11T13:37:13.544Z,53.70
2019-03-11T13:39:43.689Z,54.10
2019-03-11T13:42:13.726Z,54.60
2019-03-11T13:44:43.413Z,55.00
2019-03-11T13:47:13.569Z,55.30
2019-03-11T13:49:43.480Z,55.30
2019-03-11T13:52:13.690Z,55.30
2019-03-11T13:54:43.899Z,55.00
2019-03-11T13:57:13.513Z,55.20
2019-03-11T13:59:43.616Z,55.20
2019-03-11T14:02:13.261Z,54.90
2019-03-11T14:04:42.854Z,54.60
2019-03-11T14:07:12.496Z,54.20
2019-03-11T14:09:42.101Z,53.70
2019-03-11T14:12:12.127Z,53.40
2019-03-11T14:14:41.785Z,53.20
2019-03-11T14:17:12.365Z,53.00
2019-03-11T14:19:41.930Z,53.00
2019-03-11T14:22:12.002Z,52.40
2019-03-11T14:24:42.102Z,51.70
2019-03-11T14:27:11.886Z,51.50
2019-03-11T14:29:42.510Z,50.90
2019-03-11T14:32:12.881Z,50.80
2019-03-11T14:34:43.893Z,50.80
2019-03-11T14:37:13.538Z,51.20
2019-03-11T14:39:43.187Z,51.40
2019-03-11T14:42:13.266Z,51.90
2019-03-11T14:44:42.978Z,52.00
2019-03-11T14:47:12.969Z,52.20
2019-03-11T14:49:42.610Z,52.50
2019-03-11T14:52:12.242Z,52.80
2019-03-11T14:54:41.898Z,53.10
2019-03-11T14:57:11.494Z,53.20
2019-03-11T14:59:41.973Z,53.50
2019-03-11T15:02:11.563Z,53.60
2019-03-11T15:04:41.197Z,53.80
2019-03-11T15:07:10.793Z,54.00
2019-03-11T15:09:50.822Z,53.80
2019-03-11T15:12:12.172Z,53.90
2019-03-11T15:14:42.126Z,53.80
2019-03-11T15:17:12.169Z,54.00
2019-03-11T15:19:41.796Z,54.20
2019-03-11T15:22:12.602Z,54.40
2019-03-11T15:24:42.633Z,54.50
2019-03-11T15:27:12.227Z,54.60
2019-03-11T15:29:42.589Z,54.70
2019-03-11T15:32:12.262Z,54.40
2019-03-11T15:34:41.953Z,54.00
2019-03-11T15:37:11.566Z,54.00
2019-03-11T15:39:42.290Z,53.90
2019-03-11T15:42:11.887Z,53.70
2019-03-11T15:44:41.526Z,54.30
2019-03-11T15:47:12.347Z,53.60
2019-03-11T15:49:42.018Z,53.60
2019-03-11T15:52:11.769Z,53.40
2019-03-11T15:54:43.275Z,52.90
2019-03-11T15:57:14.110Z,52.80
2019-03-11T15:59:44.675Z,52.80
2019-03-11T16:02:14.602Z,52.60
2019-03-11T16:04:44.233Z,52.60
2019-03-11T16:07:14.365Z,52.70
2019-03-11T16:09:44.429Z,52.70
2019-03-11T16:12:15.014Z,52.50
2019-03-11T16:14:49.143Z,52.70
2019-03-11T16:17:16.725Z,52.80
2019-03-11T16:19:46.700Z,52.90
2019-03-11T16:22:23.334Z,52.70
2019-03-11T16:24:47.614Z,52.40
2019-03-11T16:27:17.211Z,52.60
2019-03-11T16:29:46.858Z,52.60
2019-03-11T16:32:17.201Z,52.60
2019-03-11T16:34:47.486Z,53.10
2019-03-11T16:37:17.426Z,52.50
2019-03-11T16:39:47.509Z,52.40
2019-03-11T16:42:17.302Z,52.20
2019-03-11T16:44:47.737Z,52.60
2019-03-11T16:47:17.378Z,52.70
2019-03-11T16:49:46.998Z,52.80
2019-03-11T16:52:16.589Z,52.90
2019-03-11T16:54:46.226Z,53.10
2019-03-11T16:57:16.133Z,53.00
2019-03-11T16:59:45.767Z,53.00
2019-03-11T17:02:15.857Z,53.20
2019-03-11T17:04:45.508Z,53.30
2019-03-11T17:07:15.101Z,53.40
2019-03-11T17:09:45.085Z,53.40
2019-03-11T17:12:14.678Z,53.50
2019-03-11T17:14:44.382Z,53.60
2019-03-11T17:17:14.414Z,53.60
2019-03-11T17:19:44.506Z,53.60
2019-03-11T17:22:14.615Z,53.60
2019-03-11T17:24:44.226Z,53.60
2019-03-11T17:27:13.813Z,53.70
2019-03-11T17:29:43.821Z,53.70
2019-03-11T17:32:13.588Z,53.70
2019-03-11T17:34:43.221Z,53.70
2019-03-11T17:37:12.807Z,53.70
2019-03-11T17:39:43.297Z,53.80
2019-03-11T17:42:13.783Z,53.90
2019-03-11T17:44:43.818Z,53.80
2019-03-11T17:47:13.497Z,53.80
2019-03-11T17:49:43.133Z,53.90
2019-03-11T17:52:12.731Z,54.20
2019-03-11T17:54:42.406Z,54.30
2019-03-11T17:57:12.421Z,54.50
2019-03-11T17:59:42.051Z,54.50
2019-03-11T18:02:12.112Z,54.60
2019-03-11T18:04:41.694Z,54.90
2019-03-11T18:07:12.182Z,54.80
2019-03-11T18:09:41.725Z,55.00
2019-03-11T18:12:12.221Z,55.20
2019-03-11T18:14:43.040Z,55.20
2019-03-11T18:17:12.680Z,55.40
2019-03-11T18:19:42.256Z,55.50
2019-03-11T18:22:11.942Z,55.70
2019-03-11T18:24:41.524Z,55.70
2019-03-11T18:27:11.169Z,55.70
2019-03-11T18:29:40.816Z,55.80
2019-03-11T18:32:10.482Z,55.90
2019-03-11T18:34:40.610Z,56.10
2019-03-11T18:37:10.727Z,56.10
2019-03-11T18:39:40.742Z,56.20
2019-03-11T18:42:10.813Z,56.30
2019-03-11T18:44:41.300Z,56.30
2019-03-11T18:47:10.946Z,56.40
2019-03-11T18:49:40.502Z,56.30
2019-03-11T18:52:10.597Z,56.50
2019-03-11T18:54:40.431Z,56.30
2019-03-11T18:57:10.481Z,56.40
2019-03-11T18:59:40.553Z,56.60
2019-03-11T19:02:10.342Z,56.60
2019-03-11T19:04:40.346Z,56.50
2019-03-11T19:07:09.969Z,56.60
2019-03-11T19:09:40.054Z,56.60
2019-03-11T19:12:10.211Z,56.50
2019-03-11T19:14:40.262Z,56.50
2019-03-11T19:17:10.490Z,56.50
2019-03-11T19:19:46.159Z,56.60
2019-03-11T19:22:11.918Z,56.60
2019-03-11T19:24:42.061Z,56.70
2019-03-11T19:27:12.071Z,56.60
2019-03-11T19:29:41.725Z,56.50
2019-03-11T19:32:11.921Z,56.40
2019-03-11T19:34:41.762Z,56.50
2019-03-11T19:37:11.865Z,56.50
2019-03-11T19:39:41.868Z,56.30
2019-03-11T19:42:11.509Z,56.30
2019-03-11T19:44:41.511Z,56.30
2019-03-11T19:47:11.163Z,57.10
2019-03-11T19:49:40.792Z,56.30
2019-03-11T19:52:10.414Z,56.30
2019-03-11T19:54:40.186Z,56.30
2019-03-11T19:57:09.922Z,57.00
2019-03-11T19:59:39.674Z,56.30
2019-03-11T20:02:10.246Z,56.30
2019-03-11T20:04:40.193Z,56.00
2019-03-11T20:07:10.314Z,56.10
2019-03-11T20:09:40.410Z,55.70
2019-03-11T20:12:10.163Z,55.90
2019-03-11T20:14:40.198Z,55.80
2019-03-11T20:17:10.766Z,55.80
2019-03-11T20:19:40.621Z,55.50
2019-03-11T20:22:10.821Z,55.70
2019-03-11T20:24:40.988Z,55.60
2019-03-11T20:27:10.627Z,55.50
2019-03-11T20:29:40.386Z,55.40
2019-03-11T20:32:10.809Z,55.30
2019-03-11T20:34:41.013Z,55.40
2019-03-11T20:37:11.549Z,55.30
2019-03-11T20:39:42.316Z,55.30
2019-03-11T20:42:12.078Z,55.40
2019-03-11T20:44:42.034Z,55.40
2019-03-11T20:47:11.767Z,55.00
2019-03-11T20:49:41.394Z,55.20
2019-03-11T20:52:12.444Z,55.20
2019-03-11T20:54:42.165Z,55.00
2019-03-11T20:57:12.160Z,55.10
2019-03-11T20:59:41.911Z,55.00
2019-03-11T21:02:12.216Z,55.00
2019-03-11T21:04:42.217Z,54.70
2019-03-11T21:07:13.346Z,54.90
2019-03-11T21:09:43.571Z,54.50
2019-03-11T21:12:13.334Z,54.40
2019-03-11T21:14:43.276Z,54.40
2019-03-11T21:17:24.986Z,54.60
2019-03-11T21:19:45.558Z,54.80
2019-03-11T21:22:15.233Z,54.90
2019-03-11T21:24:45.202Z,55.00
2019-03-11T21:27:15.739Z,55.00
2019-03-11T21:29:45.379Z,55.10
2019-03-11T21:32:15.010Z,55.20
2019-03-11T21:34:45.188Z,55.20
2019-03-11T21:37:15.484Z,55.40
2019-03-11T21:39:45.768Z,55.30
2019-03-11T21:42:15.916Z,55.40
2019-03-11T21:44:46.009Z,55.50
2019-03-11T21:47:15.702Z,55.60
2019-03-11T21:49:45.876Z,55.70
2019-03-11T21:52:16.579Z,55.70
2019-03-11T21:54:47.895Z,56.40
2019-03-11T21:57:17.612Z,55.90
2019-03-11T21:59:47.802Z,55.90
2019-03-11T22:02:17.907Z,55.80
2019-03-11T22:04:47.505Z,55.90
2019-03-11T22:07:17.138Z,55.90
2019-03-11T22:09:46.754Z,56.00
2019-03-11T22:12:16.928Z,56.10
2019-03-11T22:14:46.682Z,56.10
2019-03-11T22:17:16.390Z,56.20
2019-03-11T22:19:46.724Z,56.10
2019-03-11T22:22:16.837Z,56.10
2019-03-11T22:24:46.434Z,56.20
2019-03-11T22:27:16.054Z,56.10
2019-03-11T22:29:46.168Z,56.10
2019-03-11T22:32:15.957Z,56.10
2019-03-11T22:34:45.605Z,56.20
2019-03-11T22:37:15.266Z,56.20
2019-03-11T22:39:45.347Z,56.20
2019-03-11T22:42:15.550Z,56.30
2019-03-11T22:44:45.161Z,56.20
2019-03-11T22:47:14.775Z,56.30
2019-03-11T22:49:44.381Z,56.30
2019-03-11T22:52:14.345Z,56.30
2019-03-11T22:54:43.965Z,56.40
2019-03-11T22:57:13.597Z,56.30
2019-03-11T22:59:43.190Z,56.30
2019-03-11T23:02:12.825Z,56.30
2019-03-11T23:04:42.409Z,56.20
2019-03-11T23:07:12.373Z,56.30
2019-03-11T23:09:42.053Z,56.30
2019-03-11T23:12:11.635Z,56.40
2019-03-11T23:14:41.265Z,56.30
2019-03-11T23:17:11.225Z,56.40
2019-03-11T23:19:41.383Z,56.60
2019-03-11T23:22:11.474Z,56.60
2019-03-11T23:24:41.096Z,56.70
2019-03-11T23:27:11.230Z,56.50
2019-03-11T23:29:40.886Z,56.60
2019-03-11T23:32:10.451Z,56.60
2019-03-11T23:34:40.120Z,56.60
2019-03-11T23:37:09.699Z,56.70
2019-03-11T23:39:39.810Z,56.70
2019-03-11T23:42:09.890Z,56.80
2019-03-11T23:44:39.510Z,56.70
2019-03-11T23:50:05.061Z,56.70
2019-03-11T23:52:34.640Z,56.80
2019-03-11T23:55:04.876Z,56.70
2019-03-11T23:57:34.645Z,56.80
